sensor_id;sensor_type;location;lat;lon;timestamp;pressure;altitude;pressure_sealevel;temperature
38114;BMP180;23926;53.222;6.354;2023-06-22T00:01:11;101909.00;;;21.00
38114;BMP180;23926;53.222;6.354;2023-06-22T00:03:36;101922.00;;;20.90
38114;BMP180;23926;53.222;6.354;2023-06-22T00:06:01;101923.00;;;20.80
38114;BMP180;23926;53.222;6.354;2023-06-22T00:08:27;101911.00;;;20.70
38114;BMP180;23926;53.222;6.354;2023-06-22T00:10:52;101917.00;;;20.60
38114;BMP180;23926;53.222;6.354;2023-06-22T00:13:18;101924.00;;;20.60
38114;BMP180;23926;53.222;6.354;2023-06-22T00:15:44;101935.00;;;20.70
38114;BMP180;23926;53.222;6.354;2023-06-22T00:18:10;101940.00;;;20.70
38114;BMP180;23926;53.222;6.354;2023-06-22T00:20:36;101916.00;;;20.70
38114;BMP180;23926;53.222;6.354;2023-06-22T00:23:06;101936.00;;;20.70
38114;BMP180;23926;53.222;6.354;2023-06-22T00:25:37;101941.00;;;20.70
38114;BMP180;23926;53.222;6.354;2023-06-22T00:28:04;101933.00;;;20.70
38114;BMP180;23926;53.222;6.354;2023-06-22T00:30:30;101954.00;;;20.60
38114;BMP180;23926;53.222;6.354;2023-06-22T00:32:56;101947.00;;;20.60
38114;BMP180;23926;53.222;6.354;2023-06-22T00:35:22;101942.00;;;20.50
38114;BMP180;23926;53.222;6.354;2023-06-22T00:37:47;101947.00;;;20.40
38114;BMP180;23926;53.222;6.354;2023-06-22T00:40:13;101937.00;;;20.40
38114;BMP180;23926;53.222;6.354;2023-06-22T00:42:40;101957.00;;;20.50
38114;BMP180;23926;53.222;6.354;2023-06-22T00:45:07;101948.00;;;20.50
38114;BMP180;23926;53.222;6.354;2023-06-22T00:47:34;101949.00;;;20.50
38114;BMP180;23926;53.222;6.354;2023-06-22T00:50:01;101959.00;;;20.50
38114;BMP180;23926;53.222;6.354;2023-06-22T00:52:28;101952.00;;;20.40
38114;BMP180;23926;53.222;6.354;2023-06-22T00:54:56;101959.00;;;20.40
38114;BMP180;23926;53.222;6.354;2023-06-22T00:57:24;101959.00;;;20.40
38114;BMP180;23926;53.222;6.354;2023-06-22T00:59:53;101962.00;;;20.30
38114;BMP180;23926;53.222;6.354;2023-06-22T01:02:18;101957.00;;;20.30
38114;BMP180;23926;53.222;6.354;2023-06-22T01:04:44;101959.00;;;20.20
38114;BMP180;23926;53.222;6.354;2023-06-22T01:07:31;101960.00;;;20.20
38114;BMP180;23926;53.222;6.354;2023-06-22T01:10:23;101954.00;;;20.10
38114;BMP180;23926;53.222;6.354;2023-06-22T01:12:58;101956.00;;;20.10
38114;BMP180;23926;53.222;6.354;2023-06-22T01:15:37;101944.00;;;20.20
38114;BMP180;23926;53.222;6.354;2023-06-22T01:18:05;101949.00;;;20.20
38114;BMP180;23926;53.222;6.354;2023-06-22T01:20:34;101938.00;;;20.20
38114;BMP180;23926;53.222;6.354;2023-06-22T01:25:48;101943.00;;;20.20
38114;BMP180;23926;53.222;6.354;2023-06-22T01:28:43;101929.00;;;20.20
38114;BMP180;23926;53.222;6.354;2023-06-22T01:31:30;101936.00;;;20.20
38114;BMP180;23926;53.222;6.354;2023-06-22T01:34:02;101946.00;;;20.20
38114;BMP180;23926;53.222;6.354;2023-06-22T01:36:29;101936.00;;;20.00
38114;BMP180;23926;53.222;6.354;2023-06-22T01:38:56;101934.00;;;19.90
38114;BMP180;23926;53.222;6.354;2023-06-22T01:41:25;101920.00;;;19.80
38114;BMP180;23926;53.222;6.354;2023-06-22T01:43:52;101924.00;;;19.80
38114;BMP180;23926;53.222;6.354;2023-06-22T01:46:18;101922.00;;;19.80
38114;BMP180;23926;53.222;6.354;2023-06-22T01:48:45;101921.00;;;19.60
38114;BMP180;23926;53.222;6.354;2023-06-22T01:51:11;101912.00;;;19.40
38114;BMP180;23926;53.222;6.354;2023-06-22T01:53:37;101927.00;;;19.40
38114;BMP180;23926;53.222;6.354;2023-06-22T01:56:03;101908.00;;;19.40
38114;BMP180;23926;53.222;6.354;2023-06-22T01:58:30;101913.00;;;19.40
38114;BMP180;23926;53.222;6.354;2023-06-22T02:01:10;101914.00;;;19.40
38114;BMP180;23926;53.222;6.354;2023-06-22T02:03:46;101914.00;;;19.30
38114;BMP180;23926;53.222;6.354;2023-06-22T02:06:23;101921.00;;;19.10
38114;BMP180;23926;53.222;6.354;2023-06-22T02:08:53;101930.00;;;19.10
38114;BMP180;23926;53.222;6.354;2023-06-22T02:11:20;101909.00;;;18.90
38114;BMP180;23926;53.222;6.354;2023-06-22T02:13:46;101911.00;;;19.00
38114;BMP180;23926;53.222;6.354;2023-06-22T02:16:14;101907.00;;;19.10
38114;BMP180;23926;53.222;6.354;2023-06-22T02:18:50;101918.00;;;18.90
38114;BMP180;23926;53.222;6.354;2023-06-22T02:21:17;101908.00;;;18.90
38114;BMP180;23926;53.222;6.354;2023-06-22T02:23:43;101909.00;;;18.80
38114;BMP180;23926;53.222;6.354;2023-06-22T02:26:08;101900.00;;;18.80
38114;BMP180;23926;53.222;6.354;2023-06-22T02:28:34;101913.00;;;18.80
38114;BMP180;23926;53.222;6.354;2023-06-22T02:30:59;101900.00;;;18.90
38114;BMP180;23926;53.222;6.354;2023-06-22T02:33:25;101882.00;;;18.80
38114;BMP180;23926;53.222;6.354;2023-06-22T02:35:50;101889.00;;;18.70
38114;BMP180;23926;53.222;6.354;2023-06-22T02:38:15;101887.00;;;18.80
38114;BMP180;23926;53.222;6.354;2023-06-22T02:40:42;101891.00;;;18.80
38114;BMP180;23926;53.222;6.354;2023-06-22T02:43:08;101904.00;;;18.90
38114;BMP180;23926;53.222;6.354;2023-06-22T02:45:33;101894.00;;;18.90
38114;BMP180;23926;53.222;6.354;2023-06-22T02:47:59;101896.00;;;18.90
38114;BMP180;23926;53.222;6.354;2023-06-22T02:50:25;101906.00;;;18.90
38114;BMP180;23926;53.222;6.354;2023-06-22T02:52:50;101910.00;;;18.90
38114;BMP180;23926;53.222;6.354;2023-06-22T02:55:16;101907.00;;;18.90
38114;BMP180;23926;53.222;6.354;2023-06-22T02:57:41;101906.00;;;18.90
38114;BMP180;23926;53.222;6.354;2023-06-22T03:00:09;101908.00;;;18.90
38114;BMP180;23926;53.222;6.354;2023-06-22T03:02:46;101914.00;;;18.90
38114;BMP180;23926;53.222;6.354;2023-06-22T03:05:12;101921.00;;;18.90
38114;BMP180;23926;53.222;6.354;2023-06-22T03:07:42;101929.00;;;19.00
38114;BMP180;23926;53.222;6.354;2023-06-22T03:10:09;101924.00;;;18.90
38114;BMP180;23926;53.222;6.354;2023-06-22T03:12:35;101913.00;;;18.90
38114;BMP180;23926;53.222;6.354;2023-06-22T03:15:01;101899.00;;;18.90
38114;BMP180;23926;53.222;6.354;2023-06-22T03:17:26;101913.00;;;18.80
38114;BMP180;23926;53.222;6.354;2023-06-22T03:19:51;101920.00;;;18.80
38114;BMP180;23926;53.222;6.354;2023-06-22T03:22:17;101917.00;;;18.70
38114;BMP180;23926;53.222;6.354;2023-06-22T03:24:42;101909.00;;;18.80
38114;BMP180;23926;53.222;6.354;2023-06-22T03:27:08;101911.00;;;18.80
38114;BMP180;23926;53.222;6.354;2023-06-22T03:29:33;101919.00;;;18.80
38114;BMP180;23926;53.222;6.354;2023-06-22T03:31:59;101907.00;;;18.90
38114;BMP180;23926;53.222;6.354;2023-06-22T03:34:24;101912.00;;;18.90
38114;BMP180;23926;53.222;6.354;2023-06-22T03:36:50;101915.00;;;19.00
38114;BMP180;23926;53.222;6.354;2023-06-22T03:39:16;101908.00;;;19.00
38114;BMP180;23926;53.222;6.354;2023-06-22T03:41:41;101918.00;;;18.90
38114;BMP180;23926;53.222;6.354;2023-06-22T03:44:07;101899.00;;;18.70
38114;BMP180;23926;53.222;6.354;2023-06-22T03:46:35;101912.00;;;18.70
38114;BMP180;23926;53.222;6.354;2023-06-22T03:49:01;101893.00;;;18.70
38114;BMP180;23926;53.222;6.354;2023-06-22T03:51:28;101897.00;;;18.70
38114;BMP180;23926;53.222;6.354;2023-06-22T03:53:53;101900.00;;;18.70
38114;BMP180;23926;53.222;6.354;2023-06-22T03:56:19;101885.00;;;18.70
38114;BMP180;23926;53.222;6.354;2023-06-22T03:58:46;101891.00;;;18.70
38114;BMP180;23926;53.222;6.354;2023-06-22T04:01:11;101893.00;;;18.80
38114;BMP180;23926;53.222;6.354;2023-06-22T04:03:37;101875.00;;;18.80
38114;BMP180;23926;53.222;6.354;2023-06-22T04:06:03;101891.00;;;18.80
38114;BMP180;23926;53.222;6.354;2023-06-22T04:08:29;101890.00;;;18.80
38114;BMP180;23926;53.222;6.354;2023-06-22T04:10:55;101891.00;;;18.80
38114;BMP180;23926;53.222;6.354;2023-06-22T04:13:21;101895.00;;;18.80
38114;BMP180;23926;53.222;6.354;2023-06-22T04:15:47;101890.00;;;19.00
38114;BMP180;23926;53.222;6.354;2023-06-22T04:18:12;101906.00;;;19.00
38114;BMP180;23926;53.222;6.354;2023-06-22T04:20:38;101893.00;;;18.80
38114;BMP180;23926;53.222;6.354;2023-06-22T04:23:04;101899.00;;;18.60
38114;BMP180;23926;53.222;6.354;2023-06-22T04:25:29;101883.00;;;18.70
38114;BMP180;23926;53.222;6.354;2023-06-22T04:27:55;101909.00;;;18.80
38114;BMP180;23926;53.222;6.354;2023-06-22T04:30:20;101909.00;;;18.70
38114;BMP180;23926;53.222;6.354;2023-06-22T04:32:46;101909.00;;;18.70
38114;BMP180;23926;53.222;6.354;2023-06-22T04:35:21;101902.00;;;18.80
38114;BMP180;23926;53.222;6.354;2023-06-22T04:37:47;101902.00;;;18.90
38114;BMP180;23926;53.222;6.354;2023-06-22T04:40:15;101898.00;;;19.00
38114;BMP180;23926;53.222;6.354;2023-06-22T04:42:40;101886.00;;;19.10
38114;BMP180;23926;53.222;6.354;2023-06-22T04:45:08;101887.00;;;19.20
38114;BMP180;23926;53.222;6.354;2023-06-22T04:47:34;101889.00;;;19.30
38114;BMP180;23926;53.222;6.354;2023-06-22T04:50:04;101885.00;;;19.50
38114;BMP180;23926;53.222;6.354;2023-06-22T04:52:31;101894.00;;;19.70
38114;BMP180;23926;53.222;6.354;2023-06-22T04:54:56;101887.00;;;19.90
38114;BMP180;23926;53.222;6.354;2023-06-22T04:57:22;101897.00;;;20.10
38114;BMP180;23926;53.222;6.354;2023-06-22T04:59:55;101876.00;;;20.30
38114;BMP180;23926;53.222;6.354;2023-06-22T05:02:21;101882.00;;;20.40
38114;BMP180;23926;53.222;6.354;2023-06-22T05:04:47;101881.00;;;20.50
38114;BMP180;23926;53.222;6.354;2023-06-22T05:07:16;101885.00;;;20.50
38114;BMP180;23926;53.222;6.354;2023-06-22T05:09:41;101887.00;;;20.60
38114;BMP180;23926;53.222;6.354;2023-06-22T05:12:07;101893.00;;;20.70
38114;BMP180;23926;53.222;6.354;2023-06-22T05:14:33;101893.00;;;20.90
38114;BMP180;23926;53.222;6.354;2023-06-22T05:16:58;101894.00;;;21.00
38114;BMP180;23926;53.222;6.354;2023-06-22T05:19:24;101899.00;;;21.20
38114;BMP180;23926;53.222;6.354;2023-06-22T05:21:50;101905.00;;;21.30
38114;BMP180;23926;53.222;6.354;2023-06-22T05:24:15;101895.00;;;21.40
38114;BMP180;23926;53.222;6.354;2023-06-22T05:26:41;101906.00;;;21.40
38114;BMP180;23926;53.222;6.354;2023-06-22T05:29:06;101912.00;;;21.50
38114;BMP180;23926;53.222;6.354;2023-06-22T05:31:31;101911.00;;;21.60
38114;BMP180;23926;53.222;6.354;2023-06-22T05:33:57;101919.00;;;21.70
38114;BMP180;23926;53.222;6.354;2023-06-22T05:36:22;101912.00;;;21.80
38114;BMP180;23926;53.222;6.354;2023-06-22T05:38:52;101905.00;;;21.90
38114;BMP180;23926;53.222;6.354;2023-06-22T05:41:17;101906.00;;;22.00
38114;BMP180;23926;53.222;6.354;2023-06-22T05:43:43;101907.00;;;22.10
38114;BMP180;23926;53.222;6.354;2023-06-22T05:46:08;101895.00;;;22.10
38114;BMP180;23926;53.222;6.354;2023-06-22T05:48:34;101901.00;;;22.30
38114;BMP180;23926;53.222;6.354;2023-06-22T05:50:59;101901.00;;;22.30
38114;BMP180;23926;53.222;6.354;2023-06-22T05:53:25;101890.00;;;22.40
38114;BMP180;23926;53.222;6.354;2023-06-22T05:55:50;101904.00;;;22.50
38114;BMP180;23926;53.222;6.354;2023-06-22T05:58:16;101894.00;;;22.50
38114;BMP180;23926;53.222;6.354;2023-06-22T06:00:41;101894.00;;;22.50
38114;BMP180;23926;53.222;6.354;2023-06-22T06:03:08;101894.00;;;22.40
38114;BMP180;23926;53.222;6.354;2023-06-22T06:05:34;101903.00;;;22.40
38114;BMP180;23926;53.222;6.354;2023-06-22T06:08:00;101906.00;;;22.40
38114;BMP180;23926;53.222;6.354;2023-06-22T06:10:26;101907.00;;;22.50
38114;BMP180;23926;53.222;6.354;2023-06-22T06:12:52;101907.00;;;22.60
38114;BMP180;23926;53.222;6.354;2023-06-22T06:15:18;101907.00;;;22.70
38114;BMP180;23926;53.222;6.354;2023-06-22T06:17:51;101898.00;;;22.80
38114;BMP180;23926;53.222;6.354;2023-06-22T06:20:22;101916.00;;;22.90
38114;BMP180;23926;53.222;6.354;2023-06-22T06:22:48;101904.00;;;23.10
38114;BMP180;23926;53.222;6.354;2023-06-22T06:25:14;101918.00;;;23.40
38114;BMP180;23926;53.222;6.354;2023-06-22T06:27:47;101918.00;;;23.60
38114;BMP180;23926;53.222;6.354;2023-06-22T06:30:14;101916.00;;;23.80
38114;BMP180;23926;53.222;6.354;2023-06-22T06:32:40;101916.00;;;23.90
38114;BMP180;23926;53.222;6.354;2023-06-22T06:35:07;101919.00;;;24.00
38114;BMP180;23926;53.222;6.354;2023-06-22T06:37:36;101928.00;;;24.10
38114;BMP180;23926;53.222;6.354;2023-06-22T06:40:02;101916.00;;;24.20
38114;BMP180;23926;53.222;6.354;2023-06-22T06:42:28;101922.00;;;24.40
38114;BMP180;23926;53.222;6.354;2023-06-22T06:44:53;101916.00;;;24.60
38114;BMP180;23926;53.222;6.354;2023-06-22T06:47:20;101911.00;;;24.80
38114;BMP180;23926;53.222;6.354;2023-06-22T06:49:45;101916.00;;;24.90
38114;BMP180;23926;53.222;6.354;2023-06-22T06:52:11;101921.00;;;25.10
38114;BMP180;23926;53.222;6.354;2023-06-22T06:54:36;101921.00;;;25.10
38114;BMP180;23926;53.222;6.354;2023-06-22T06:57:02;101923.00;;;25.20
38114;BMP180;23926;53.222;6.354;2023-06-22T06:59:28;101928.00;;;25.20
38114;BMP180;23926;53.222;6.354;2023-06-22T07:01:55;101922.00;;;25.20
38114;BMP180;23926;53.222;6.354;2023-06-22T07:04:21;101918.00;;;25.20
38114;BMP180;23926;53.222;6.354;2023-06-22T07:06:46;101924.00;;;25.20
38114;BMP180;23926;53.222;6.354;2023-06-22T07:09:12;101927.00;;;25.20
38114;BMP180;23926;53.222;6.354;2023-06-22T07:11:37;101928.00;;;25.30
38114;BMP180;23926;53.222;6.354;2023-06-22T07:14:03;101927.00;;;25.30
38114;BMP180;23926;53.222;6.354;2023-06-22T07:16:28;101921.00;;;25.30
38114;BMP180;23926;53.222;6.354;2023-06-22T07:18:55;101925.00;;;25.40
38114;BMP180;23926;53.222;6.354;2023-06-22T07:21:20;101924.00;;;25.30
38114;BMP180;23926;53.222;6.354;2023-06-22T07:23:46;101925.00;;;25.30
38114;BMP180;23926;53.222;6.354;2023-06-22T07:26:11;101926.00;;;25.50
38114;BMP180;23926;53.222;6.354;2023-06-22T07:28:38;101924.00;;;25.50
38114;BMP180;23926;53.222;6.354;2023-06-22T07:31:06;101916.00;;;25.50
38114;BMP180;23926;53.222;6.354;2023-06-22T07:33:31;101917.00;;;25.50
38114;BMP180;23926;53.222;6.354;2023-06-22T07:35:56;101913.00;;;25.50
38114;BMP180;23926;53.222;6.354;2023-06-22T07:38:22;101911.00;;;25.60
38114;BMP180;23926;53.222;6.354;2023-06-22T07:40:47;101921.00;;;25.60
38114;BMP180;23926;53.222;6.354;2023-06-22T07:43:13;101902.00;;;25.60
38114;BMP180;23926;53.222;6.354;2023-06-22T07:45:38;101909.00;;;25.60
38114;BMP180;23926;53.222;6.354;2023-06-22T07:48:06;101901.00;;;25.70
38114;BMP180;23926;53.222;6.354;2023-06-22T07:50:31;101902.00;;;25.80
38114;BMP180;23926;53.222;6.354;2023-06-22T07:52:57;101899.00;;;25.80
38114;BMP180;23926;53.222;6.354;2023-06-22T07:55:22;101887.00;;;25.90
38114;BMP180;23926;53.222;6.354;2023-06-22T07:57:49;101894.00;;;26.10
38114;BMP180;23926;53.222;6.354;2023-06-22T08:00:17;101896.00;;;26.30
38114;BMP180;23926;53.222;6.354;2023-06-22T08:02:45;101897.00;;;26.40
38114;BMP180;23926;53.222;6.354;2023-06-22T08:05:11;101893.00;;;26.40
38114;BMP180;23926;53.222;6.354;2023-06-22T08:07:37;101884.00;;;26.50
38114;BMP180;23926;53.222;6.354;2023-06-22T08:10:09;101888.00;;;26.60
38114;BMP180;23926;53.222;6.354;2023-06-22T08:12:35;101882.00;;;26.70
38114;BMP180;23926;53.222;6.354;2023-06-22T08:15:00;101896.00;;;26.80
38114;BMP180;23926;53.222;6.354;2023-06-22T08:17:26;101897.00;;;26.70
38114;BMP180;23926;53.222;6.354;2023-06-22T08:19:51;101890.00;;;26.80
38114;BMP180;23926;53.222;6.354;2023-06-22T08:22:17;101891.00;;;27.10
38114;BMP180;23926;53.222;6.354;2023-06-22T08:24:43;101892.00;;;27.30
38114;BMP180;23926;53.222;6.354;2023-06-22T08:27:10;101899.00;;;27.50
38114;BMP180;23926;53.222;6.354;2023-06-22T08:29:38;101894.00;;;27.50
38114;BMP180;23926;53.222;6.354;2023-06-22T08:32:04;101891.00;;;27.40
38114;BMP180;23926;53.222;6.354;2023-06-22T08:34:30;101886.00;;;27.50
38114;BMP180;23926;53.222;6.354;2023-06-22T08:36:56;101894.00;;;27.60
38114;BMP180;23926;53.222;6.354;2023-06-22T08:39:21;101898.00;;;27.80
38114;BMP180;23926;53.222;6.354;2023-06-22T08:41:47;101894.00;;;27.70
38114;BMP180;23926;53.222;6.354;2023-06-22T08:44:13;101898.00;;;27.70
38114;BMP180;23926;53.222;6.354;2023-06-22T08:46:38;101886.00;;;27.90
38114;BMP180;23926;53.222;6.354;2023-06-22T08:49:06;101885.00;;;27.80
38114;BMP180;23926;53.222;6.354;2023-06-22T08:51:32;101887.00;;;27.80
38114;BMP180;23926;53.222;6.354;2023-06-22T08:53:57;101889.00;;;27.90
38114;BMP180;23926;53.222;6.354;2023-06-22T08:56:23;101884.00;;;28.00
38114;BMP180;23926;53.222;6.354;2023-06-22T08:58:48;101888.00;;;28.30
38114;BMP180;23926;53.222;6.354;2023-06-22T09:01:13;101886.00;;;28.50
38114;BMP180;23926;53.222;6.354;2023-06-22T09:03:41;101879.00;;;28.30
38114;BMP180;23926;53.222;6.354;2023-06-22T09:06:06;101875.00;;;28.30
38114;BMP180;23926;53.222;6.354;2023-06-22T09:08:34;101872.00;;;28.20
38114;BMP180;23926;53.222;6.354;2023-06-22T09:11:00;101861.00;;;28.10
38114;BMP180;23926;53.222;6.354;2023-06-22T09:13:25;101870.00;;;28.20
38114;BMP180;23926;53.222;6.354;2023-06-22T09:15:51;101873.00;;;28.10
38114;BMP180;23926;53.222;6.354;2023-06-22T09:18:17;101870.00;;;28.10
38114;BMP180;23926;53.222;6.354;2023-06-22T09:20:43;101869.00;;;28.10
38114;BMP180;23926;53.222;6.354;2023-06-22T09:23:08;101870.00;;;28.00
38114;BMP180;23926;53.222;6.354;2023-06-22T09:25:33;101864.00;;;28.00
38114;BMP180;23926;53.222;6.354;2023-06-22T09:27:59;101858.00;;;28.10
38114;BMP180;23926;53.222;6.354;2023-06-22T09:30:24;101857.00;;;28.00
38114;BMP180;23926;53.222;6.354;2023-06-22T09:32:50;101851.00;;;28.00
38114;BMP180;23926;53.222;6.354;2023-06-22T09:35:15;101857.00;;;28.00
38114;BMP180;23926;53.222;6.354;2023-06-22T09:37:41;101858.00;;;28.00
38114;BMP180;23926;53.222;6.354;2023-06-22T09:40:07;101853.00;;;28.10
38114;BMP180;23926;53.222;6.354;2023-06-22T09:42:35;101853.00;;;28.30
38114;BMP180;23926;53.222;6.354;2023-06-22T09:45:00;101853.00;;;28.40
38114;BMP180;23926;53.222;6.354;2023-06-22T09:47:27;101851.00;;;28.40
38114;BMP180;23926;53.222;6.354;2023-06-22T09:49:52;101848.00;;;28.50
38114;BMP180;23926;53.222;6.354;2023-06-22T09:52:21;101835.00;;;28.30
38114;BMP180;23926;53.222;6.354;2023-06-22T09:54:46;101851.00;;;28.20
38114;BMP180;23926;53.222;6.354;2023-06-22T09:57:11;101847.00;;;28.20
38114;BMP180;23926;53.222;6.354;2023-06-22T09:59:37;101842.00;;;28.30
38114;BMP180;23926;53.222;6.354;2023-06-22T10:02:05;101832.00;;;28.30
38114;BMP180;23926;53.222;6.354;2023-06-22T10:04:31;101841.00;;;28.40
38114;BMP180;23926;53.222;6.354;2023-06-22T10:06:57;101845.00;;;28.50
38114;BMP180;23926;53.222;6.354;2023-06-22T10:09:22;101846.00;;;28.70
38114;BMP180;23926;53.222;6.354;2023-06-22T10:11:48;101846.00;;;29.10
38114;BMP180;23926;53.222;6.354;2023-06-22T10:14:13;101840.00;;;29.30
38114;BMP180;23926;53.222;6.354;2023-06-22T10:16:39;101846.00;;;29.40
38114;BMP180;23926;53.222;6.354;2023-06-22T10:19:06;101831.00;;;29.60
38114;BMP180;23926;53.222;6.354;2023-06-22T10:21:31;101840.00;;;29.60
38114;BMP180;23926;53.222;6.354;2023-06-22T10:23:58;101837.00;;;29.60
38114;BMP180;23926;53.222;6.354;2023-06-22T10:26:24;101832.00;;;29.50
38114;BMP180;23926;53.222;6.354;2023-06-22T10:28:50;101832.00;;;29.60
38114;BMP180;23926;53.222;6.354;2023-06-22T10:31:15;101823.00;;;29.80
38114;BMP180;23926;53.222;6.354;2023-06-22T10:33:42;101820.00;;;29.70
38114;BMP180;23926;53.222;6.354;2023-06-22T10:36:10;101821.00;;;29.70
38114;BMP180;23926;53.222;6.354;2023-06-22T10:38:35;101817.00;;;29.70
38114;BMP180;23926;53.222;6.354;2023-06-22T10:41:00;101815.00;;;29.80
38114;BMP180;23926;53.222;6.354;2023-06-22T10:43:26;101818.00;;;30.00
38114;BMP180;23926;53.222;6.354;2023-06-22T10:45:52;101816.00;;;30.10
38114;BMP180;23926;53.222;6.354;2023-06-22T10:48:17;101823.00;;;30.00
38114;BMP180;23926;53.222;6.354;2023-06-22T10:50:42;101823.00;;;29.90
38114;BMP180;23926;53.222;6.354;2023-06-22T10:53:08;101824.00;;;29.70
38114;BMP180;23926;53.222;6.354;2023-06-22T10:55:33;101823.00;;;29.80
38114;BMP180;23926;53.222;6.354;2023-06-22T10:57:59;101818.00;;;29.90
38114;BMP180;23926;53.222;6.354;2023-06-22T11:00:24;101818.00;;;30.00
38114;BMP180;23926;53.222;6.354;2023-06-22T11:02:49;101809.00;;;30.00
38114;BMP180;23926;53.222;6.354;2023-06-22T11:05:15;101816.00;;;30.10
38114;BMP180;23926;53.222;6.354;2023-06-22T11:07:44;101805.00;;;30.20
38114;BMP180;23926;53.222;6.354;2023-06-22T11:10:10;101817.00;;;30.00
38114;BMP180;23926;53.222;6.354;2023-06-22T11:12:35;101811.00;;;29.80
38114;BMP180;23926;53.222;6.354;2023-06-22T11:15:01;101807.00;;;29.80
38114;BMP180;23926;53.222;6.354;2023-06-22T11:17:27;101799.00;;;29.90
38114;BMP180;23926;53.222;6.354;2023-06-22T11:19:52;101808.00;;;30.00
38114;BMP180;23926;53.222;6.354;2023-06-22T11:22:17;101803.00;;;30.30
38114;BMP180;23926;53.222;6.354;2023-06-22T11:24:43;101804.00;;;30.50
38114;BMP180;23926;53.222;6.354;2023-06-22T11:27:08;101805.00;;;30.70
38114;BMP180;23926;53.222;6.354;2023-06-22T11:29:34;101812.00;;;30.60
38114;BMP180;23926;53.222;6.354;2023-06-22T11:31:59;101805.00;;;30.40
38114;BMP180;23926;53.222;6.354;2023-06-22T11:34:25;101816.00;;;30.20
38114;BMP180;23926;53.222;6.354;2023-06-22T11:36:51;101812.00;;;30.10
38114;BMP180;23926;53.222;6.354;2023-06-22T11:39:16;101806.00;;;30.00
38114;BMP180;23926;53.222;6.354;2023-06-22T11:41:42;101807.00;;;29.90
38114;BMP180;23926;53.222;6.354;2023-06-22T11:44:08;101805.00;;;29.90
38114;BMP180;23926;53.222;6.354;2023-06-22T11:46:33;101819.00;;;30.00
38114;BMP180;23926;53.222;6.354;2023-06-22T11:49:00;101806.00;;;30.10
38114;BMP180;23926;53.222;6.354;2023-06-22T11:51:25;101813.00;;;30.10
38114;BMP180;23926;53.222;6.354;2023-06-22T11:53:51;101803.00;;;30.20
38114;BMP180;23926;53.222;6.354;2023-06-22T11:56:16;101801.00;;;30.10
38114;BMP180;23926;53.222;6.354;2023-06-22T11:58:42;101807.00;;;29.90
38114;BMP180;23926;53.222;6.354;2023-06-22T12:01:07;101797.00;;;29.90
38114;BMP180;23926;53.222;6.354;2023-06-22T12:03:32;101786.00;;;29.70
38114;BMP180;23926;53.222;6.354;2023-06-22T12:05:59;101803.00;;;29.60
38114;BMP180;23926;53.222;6.354;2023-06-22T12:08:25;101794.00;;;29.40
38114;BMP180;23926;53.222;6.354;2023-06-22T12:10:50;101800.00;;;29.50
38114;BMP180;23926;53.222;6.354;2023-06-22T12:13:16;101798.00;;;29.50
38114;BMP180;23926;53.222;6.354;2023-06-22T12:15:41;101787.00;;;29.60
38114;BMP180;23926;53.222;6.354;2023-06-22T12:18:07;101792.00;;;29.70
38114;BMP180;23926;53.222;6.354;2023-06-22T12:20:33;101779.00;;;29.60
38114;BMP180;23926;53.222;6.354;2023-06-22T12:22:59;101784.00;;;29.50
38114;BMP180;23926;53.222;6.354;2023-06-22T12:25:24;101776.00;;;29.50
38114;BMP180;23926;53.222;6.354;2023-06-22T12:27:50;101768.00;;;29.60
38114;BMP180;23926;53.222;6.354;2023-06-22T12:30:16;101771.00;;;29.50
38114;BMP180;23926;53.222;6.354;2023-06-22T12:32:42;101768.00;;;29.60
38114;BMP180;23926;53.222;6.354;2023-06-22T12:35:07;101754.00;;;29.40
38114;BMP180;23926;53.222;6.354;2023-06-22T12:37:38;101759.00;;;29.50
38114;BMP180;23926;53.222;6.354;2023-06-22T12:40:04;101765.00;;;29.40
38114;BMP180;23926;53.222;6.354;2023-06-22T12:42:30;101749.00;;;29.50
38114;BMP180;23926;53.222;6.354;2023-06-22T12:44:55;101749.00;;;29.50
38114;BMP180;23926;53.222;6.354;2023-06-22T12:47:21;101755.00;;;29.60
38114;BMP180;23926;53.222;6.354;2023-06-22T12:49:46;101756.00;;;29.70
38114;BMP180;23926;53.222;6.354;2023-06-22T12:52:11;101759.00;;;29.60
38114;BMP180;23926;53.222;6.354;2023-06-22T12:54:37;101752.00;;;29.50
38114;BMP180;23926;53.222;6.354;2023-06-22T12:57:03;101762.00;;;29.60
38114;BMP180;23926;53.222;6.354;2023-06-22T12:59:28;101756.00;;;29.40
38114;BMP180;23926;53.222;6.354;2023-06-22T13:01:53;101757.00;;;29.40
38114;BMP180;23926;53.222;6.354;2023-06-22T13:04:19;101751.00;;;29.30
38114;BMP180;23926;53.222;6.354;2023-06-22T13:06:45;101762.00;;;29.30
38114;BMP180;23926;53.222;6.354;2023-06-22T13:09:18;101752.00;;;29.40
38114;BMP180;23926;53.222;6.354;2023-06-22T13:11:43;101748.00;;;29.50
38114;BMP180;23926;53.222;6.354;2023-06-22T13:14:09;101751.00;;;29.60
38114;BMP180;23926;53.222;6.354;2023-06-22T13:16:34;101752.00;;;29.60
38114;BMP180;23926;53.222;6.354;2023-06-22T13:19:00;101746.00;;;29.50
38114;BMP180;23926;53.222;6.354;2023-06-22T13:21:25;101730.00;;;29.30
38114;BMP180;23926;53.222;6.354;2023-06-22T13:23:51;101744.00;;;29.20
38114;BMP180;23926;53.222;6.354;2023-06-22T13:26:16;101739.00;;;29.20
38114;BMP180;23926;53.222;6.354;2023-06-22T13:28:42;101738.00;;;29.20
38114;BMP180;23926;53.222;6.354;2023-06-22T13:31:07;101748.00;;;29.10
38114;BMP180;23926;53.222;6.354;2023-06-22T13:33:33;101748.00;;;28.90
38114;BMP180;23926;53.222;6.354;2023-06-22T13:35:58;101747.00;;;28.80
38114;BMP180;23926;53.222;6.354;2023-06-22T13:38:23;101741.00;;;28.60
38114;BMP180;23926;53.222;6.354;2023-06-22T13:40:49;101742.00;;;28.50
38114;BMP180;23926;53.222;6.354;2023-06-22T13:43:15;101744.00;;;28.40
38114;BMP180;23926;53.222;6.354;2023-06-22T13:45:41;101750.00;;;28.40
38114;BMP180;23926;53.222;6.354;2023-06-22T13:48:07;101740.00;;;28.50
38114;BMP180;23926;53.222;6.354;2023-06-22T13:50:32;101734.00;;;28.40
38114;BMP180;23926;53.222;6.354;2023-06-22T13:52:57;101749.00;;;28.40
38114;BMP180;23926;53.222;6.354;2023-06-22T13:55:23;101751.00;;;28.40